Wahpeton, MN

7:16 AM CST on December 08, 2019 (GMT -0600)
Stern

Weather History for KBWP - November, 2019

Change the Weather History Date:

Saturday, November 16, 2019

  Actual Average (KFFM) Record (KFFM)
Temperature  
Mean Temperature 39 °F -  
Max Temperature 46 °F 37 °F 66 °F (2001)
Min Temperature 32 °F 19 °F -6 °F (1959)
Degree Days  
Heating Degree Days 26    
Moisture  
Dew Point 32 °F    
Average Humidity 78    
Maximum Humidity 93    
Minimum Humidity 57    
Precipitation  
Precipitation 0.00 in - - ()
Sea Level Pressure  
Sea Level Pressure 29.93 in    
Wind  
Wind Speed 11 mph ()    
Max Wind Speed 17 mph    
Max Gust Speed 22 mph    
Visibility 10.0 miles    
Events      
Averages and records for this station are not official NWS values.
T = Trace of Precipitation, MM = Missing Value Source: Averaged Metar Reports

Daily Weather History Graph

Daily Weather History Graph

Search for Another Location

Airport or City:

Astronomy

Nov. 16, 2019 Rise Set
Actual Time 7:28 AM CST 4:53 PM CST
Civil Twilight 6:56 AM CST 5:25 PM CST
Nautical Twilight 6:19 AM CST 6:02 PM CST
Astronomical Twilight 5:44 AM CST 6:37 PM CST
Moon 8:20 PM CST (11/16) 11:30 AM CST (11/16)
Length of Visible Light 10h 29m
Length of Day
9h 24m
Waning Gibbous, 82% of the Moon is Illuminated
Nov 16
Waning Gibbous
Nov 19
Last Quarter
Nov 26
New
Dec 4
First Quarter
Dec 11
Full

Hourly Weather History & Observations

Time (CST) Temp. Windchill Dew Point Humidity Pressure Visibility Wind Dir Wind Speed Gust Speed Precip Events Conditions
12:15 AM 32.0 °F 21.6 °F 28.4 °F 87% 30.05 in 10.0 mi SE 15.0 mph - N/A   Unknown
12:35 AM 33.8 °F 23.9 °F 28.4 °F 81% 30.04 in 10.0 mi SE 15.0 mph - N/A   Unknown
12:55 AM 33.8 °F 25.3 °F 30.2 °F 87% 30.03 in 10.0 mi SE 11.5 mph - N/A   Unknown
1:15 AM 33.8 °F 25.8 °F 30.2 °F 87% 30.02 in 10.0 mi SE 10.4 mph - N/A   Unknown
1:35 AM 33.8 °F 25.3 °F 30.2 °F 87% 30.01 in 10.0 mi SE 11.5 mph - N/A   Unknown
1:55 AM 33.8 °F 24.8 °F 30.2 °F 87% 29.99 in 10.0 mi SE 12.7 mph - N/A   Unknown
2:35 AM 33.8 °F 24.8 °F 30.2 °F 87% 29.99 in 10.0 mi SE 12.7 mph - N/A   Unknown
2:55 AM 33.8 °F 24.8 °F 30.2 °F 87% 29.98 in 10.0 mi SE 12.7 mph - N/A   Unknown
3:15 AM 33.8 °F 24.8 °F 30.2 °F 87% 29.97 in 10.0 mi SE 12.7 mph - N/A   Unknown
3:35 AM 33.8 °F 24.8 °F 30.2 °F 87% 29.96 in 10.0 mi SE 12.7 mph - N/A   Unknown
3:55 AM 33.8 °F 23.9 °F 30.2 °F 87% 29.96 in 10.0 mi SE 15.0 mph - N/A   Unknown
4:15 AM 33.8 °F 23.9 °F 30.2 °F 87% 29.95 in 10.0 mi SE 15.0 mph - N/A   Unknown
4:35 AM 33.8 °F 24.8 °F 30.2 °F 87% 29.95 in 10.0 mi SE 12.7 mph - N/A   Unknown
4:55 AM 33.8 °F 23.9 °F 30.2 °F 87% 29.94 in 10.0 mi SE 15.0 mph - N/A   Unknown
5:35 AM 33.8 °F 23.9 °F 30.2 °F 87% 29.93 in 10.0 mi SE 15.0 mph - N/A   Unknown
5:55 AM 33.8 °F 24.8 °F 30.2 °F 87% 29.94 in 10.0 mi SSE 12.7 mph - N/A   Unknown
6:15 AM 33.8 °F 24.3 °F 30.2 °F 87% 29.92 in 10.0 mi SE 13.8 mph - N/A   Unknown
6:35 AM 33.8 °F 24.8 °F 30.2 °F 87% 29.92 in 10.0 mi SE 12.7 mph - N/A   Unknown
6:55 AM 32.0 °F 22.5 °F 30.2 °F 93% 29.92 in 10.0 mi SSE 12.7 mph - N/A   Unknown
7:15 AM 32.0 °F 23.0 °F 30.2 °F 93% 29.92 in 10.0 mi SE 11.5 mph - N/A   Unknown
7:35 AM 32.0 °F 22.5 °F 30.2 °F 93% 29.92 in 10.0 mi SE 12.7 mph - N/A   Unknown
7:55 AM 32.0 °F 23.0 °F 30.2 °F 93% 29.93 in 10.0 mi SE 11.5 mph - N/A   Unknown
8:15 AM 33.8 °F 26.4 °F 30.2 °F 87% 29.94 in 10.0 mi SE 9.2 mph - N/A   Unknown
8:35 AM 33.8 °F 25.3 °F 30.2 °F 87% 29.93 in 10.0 mi SE 11.5 mph - N/A   Unknown
8:55 AM 33.8 °F 24.3 °F 30.2 °F 87% 29.92 in 10.0 mi SE 13.8 mph 18.4 mph N/A   Unknown
9:15 AM 35.6 °F 26.6 °F 30.2 °F 81% 29.93 in 10.0 mi SE 13.8 mph - N/A   Unknown
9:35 AM 35.6 °F 26.6 °F 32.0 °F 87% 29.93 in 10.0 mi SSE 13.8 mph - N/A   Unknown
9:55 AM 37.4 °F 28.2 °F 32.0 °F 81% 29.93 in 10.0 mi SSE 16.1 mph - N/A   Unknown
10:15 AM 37.4 °F 28.5 °F 32.0 °F 81% 29.92 in 10.0 mi SSE 15.0 mph - N/A   Unknown
10:55 AM 42.8 °F 35.1 °F 32.0 °F 66% 29.92 in 10.0 mi South 16.1 mph 21.9 mph N/A   Unknown
11:15 AM 42.8 °F 34.8 °F 32.0 °F 66% 29.90 in 10.0 mi SSE 17.3 mph - N/A   Unknown
11:35 AM 44.6 °F 38.4 °F 32.0 °F 61% 29.90 in 10.0 mi South 12.7 mph - N/A   Unknown
11:55 AM 44.6 °F 37.2 °F 32.0 °F 61% 29.89 in 10.0 mi South 17.3 mph - N/A   Unknown
12:15 PM 44.6 °F 37.8 °F 32.0 °F 61% 29.88 in 10.0 mi South 15.0 mph - N/A   Unknown
12:35 PM 44.6 °F 37.8 °F 32.0 °F 61% 29.88 in 10.0 mi South 15.0 mph - N/A   Unknown
12:55 PM 46.4 °F 40.4 °F 32.0 °F 57% 29.88 in 10.0 mi South 13.8 mph - N/A   Unknown
1:15 PM 44.6 °F 40.2 °F 32.0 °F 61% 29.89 in 10.0 mi South 8.1 mph 11.5 mph N/A   Unknown
1:35 PM 44.6 °F 38.8 °F 32.0 °F 61% 29.87 in 10.0 mi South 11.5 mph - N/A   Unknown
1:55 PM 46.4 °F 41.1 °F 32.0 °F 57% 29.87 in 10.0 mi South 11.5 mph - N/A   Unknown
2:15 PM 46.4 °F 41.5 °F 32.0 °F 57% 29.87 in 10.0 mi South 10.4 mph - N/A   Unknown
2:35 PM 46.4 °F 41.9 °F 32.0 °F 57% 29.87 in 10.0 mi South 9.2 mph - N/A   Unknown
2:55 PM 44.6 °F 40.7 °F 32.0 °F 61% 29.87 in 10.0 mi South 6.9 mph - N/A   Unknown
3:15 PM 44.6 °F 40.7 °F 32.0 °F 61% 29.88 in 10.0 mi South 6.9 mph - N/A   Unknown
3:35 PM 44.6 °F 42.2 °F 32.0 °F 61% 29.87 in 10.0 mi South 4.6 mph - N/A   Unknown
3:55 PM 44.6 °F 40.7 °F 32.0 °F 61% 29.87 in 10.0 mi South 6.9 mph - N/A   Unknown
4:15 PM 42.8 °F 39.3 °F 32.0 °F 66% 29.88 in 10.0 mi WSW 5.8 mph - N/A   Unknown
4:35 PM 42.8 °F 39.3 °F 32.0 °F 66% 29.87 in 10.0 mi South 5.8 mph - N/A   Unknown
4:55 PM 41.0 °F 37.1 °F 32.0 °F 70% 29.88 in 10.0 mi South 5.8 mph - N/A   Unknown
5:15 PM 41.0 °F 37.1 °F 32.0 °F 70% 29.89 in 10.0 mi WSW 5.8 mph - N/A   Unknown
5:35 PM 37.4 °F 32.8 °F 32.0 °F 81% 29.90 in 10.0 mi WSW 5.8 mph - N/A   Unknown
5:55 PM 37.4 °F 32.8 °F 32.0 °F 81% 29.91 in 10.0 mi WSW 5.8 mph - N/A   Unknown
6:15 PM 37.4 °F 32.8 °F 32.0 °F 81% 29.91 in 10.0 mi West 5.8 mph - N/A   Unknown
6:35 PM 37.4 °F 32.8 °F 32.0 °F 81% 29.92 in 10.0 mi WSW 5.8 mph - N/A   Unknown
6:55 PM 39.2 °F 33.0 °F 32.0 °F 75% 29.92 in 10.0 mi West 9.2 mph - N/A   Unknown
7:35 PM 39.2 °F 33.6 °F 33.8 °F 81% 29.92 in 10.0 mi West 8.1 mph - N/A   Unknown
8:15 PM 37.4 °F 31.4 °F 33.8 °F 87% 29.92 in 10.0 mi WSW 8.1 mph - N/A   Unknown
8:35 PM 37.4 °F 31.4 °F 33.8 °F 87% 29.92 in 10.0 mi West 8.1 mph - N/A   Unknown
8:55 PM 37.4 °F 32.8 °F 33.8 °F 87% 29.93 in 10.0 mi WSW 5.8 mph - N/A   Unknown
9:15 PM 39.2 °F 33.0 °F 33.8 °F 81% 29.93 in 10.0 mi West 9.2 mph - N/A   Unknown
9:35 PM 37.4 °F 29.8 °F 33.8 °F 87% 29.93 in 10.0 mi West 11.5 mph - N/A   Unknown
9:55 PM 37.4 °F 29.8 °F 33.8 °F 87% 29.93 in 10.0 mi West 11.5 mph - N/A   Unknown
10:15 PM 37.4 °F 30.3 °F 33.8 °F 87% 29.93 in 10.0 mi West 10.4 mph - N/A   Unknown
10:35 PM 37.4 °F 30.3 °F 33.8 °F 87% 29.93 in 10.0 mi West 10.4 mph - N/A   Unknown
10:55 PM 37.4 °F 30.8 °F 33.8 °F 87% 29.93 in 10.0 mi West 9.2 mph - N/A   Unknown
11:15 PM 37.4 °F 29.8 °F 33.8 °F 87% 29.93 in 10.0 mi West 11.5 mph - N/A   Unknown
11:35 PM 39.2 °F 31.2 °F 32.0 °F 75% 29.93 in 10.0 mi WNW 13.8 mph - N/A   Unknown
11:55 PM 39.2 °F 32.0 °F 32.0 °F 75% 29.93 in 10.0 mi WNW 11.5 mph - N/A   Unknown